DW0952 Weather Reports


Display with metric or nautical units.
time (UTC)temp
F
wind
direction
speed
MPH
gust
MPH
rain 1hr
in
rain 24hr
in
rain mn
in
humidity
%
barometer
mb
20200328115823 33 332 1.0 4.0 0.00 0.00 0.00 71 1020.8
20200328115330 33 332 0.0 2.0 0.00 0.00 0.00 71 1020.8
20200328114828 33 332 0.0 3.0 0.00 0.00 0.00 70 1020.7
20200328114611 32 332 0.0 0.0 0.00 0.00 0.00 70 1019.8
20200328114314 33 332 0.0 3.0 0.00 0.00 0.00 70 1020.6
20200328113832 33 332 1.0 2.0 0.00 0.00 0.00 70 1020.5
20200328113324 33 332 0.0 2.0 0.00 0.00 0.00 70 1020.4
20200328113205 33 332 0.0 0.0 0.00 0.00 0.00 70 1019.6
20200328112824 33 332 0.0 3.0 0.00 0.00 0.00 69 1020.5
20200328112339 34 332 0.0 3.0 0.00 0.00 0.00 69 1020.5
20200328111832 34 332 2.0 4.0 0.00 0.00 0.00 69 1020.3
20200328111606 33 332 1.0 0.0 0.00 0.00 0.00 69 1019.4
20200328111324 34 332 1.0 4.0 0.00 0.00 0.00 69 1020.2
20200328110813 34 332 1.0 5.0 0.00 0.00 0.00 69 1020.1
20200328110405 34 332 1.0 6.0 0.00 0.00 0.00 69 1020.0
20200328110059 33 332 4.0 0.0 0.00 0.00 0.00 69 1019.2
20200328105829 34 332 3.0 6.0 0.00 0.00 0.00 69 1019.9
20200328105323 33 331 4.0 5.0 0.00 0.00 0.00 70 1019.9
20200328104824 33 331 3.0 5.0 0.00 0.00 0.00 69 1019.9
20200328104541 33 330 2.0 0.0 0.00 0.00 0.00 69 1019.0
20200328104323 34 330 1.0 3.0 0.00 0.00 0.00 69 1020.0
20200328103826 34 330 1.0 4.0 0.00 0.00 0.00 69 1019.9
20200328103322 34 330 1.0 6.0 0.00 0.00 0.00 69 1019.8
20200328103001 33 330 3.0 0.0 0.00 0.00 0.00 69 1019.0
20200328102823 33 330 4.0 6.0 0.00 0.00 0.00 69 1019.8
20200328102316 34 330 2.0 4.0 0.00 0.00 0.00 69 1019.8
20200328101814 34 330 1.0 5.0 0.00 0.00 0.00 69 1019.8
20200328101716 33 330 2.0 0.0 0.00 0.00 0.00 69 1018.8
20200328101328 34 330 2.0 5.0 0.00 0.00 0.00 69 1019.8
20200328100828 34 330 2.0 5.0 0.00 0.00 0.00 69 1020.6
20200328100350 34 330 3.0 5.0 0.00 0.00 0.00 68 1020.6
20200328100159 33 330 1.0 0.0 0.00 0.00 0.00 68 1018.8
20200328095820 34 330 0.0 3.0 0.00 0.00 0.00 67 1020.5
20200328095315 35 330 0.0 0.0 0.00 0.00 0.00 66 1020.5
20200328094833 35 330 0.0 0.0 0.00 0.00 0.00 65 1020.6
20200328094528 35 330 0.0 0.0 0.00 0.00 0.00 64 1018.8
20200328094322 36 330 0.0 1.0 0.00 0.00 0.00 64 1020.5
20200328093823 37 330 0.0 1.0 0.00 0.00 0.00 63 1020.5
20200328093438 37 330 1.0 0.0 0.00 0.00 0.00 62 1018.8
20200328093435 37 330 0.0 4.0 0.00 0.00 0.00 62 1020.5
20200328092833 37 330 1.0 5.0 0.00 0.00 0.00 62 1020.6
20200328092327 37 330 2.0 7.0 0.00 0.00 0.00 62 1020.5
20200328091317 36 332 1.0 8.0 0.00 0.00 0.00 65 1020.4
20200328090815 34 332 3.0 7.0 0.00 0.00 0.00 68 1020.4
20200328090349 34 332 3.0 5.0 0.00 0.00 0.00 69 1020.3
20200328090110 33 332 1.0 0.0 0.00 0.00 0.00 69 1018.5
20200328085816 34 332 1.0 3.0 0.00 0.00 0.00 69 1020.2
20200328085329 35 332 1.0 4.0 0.00 0.00 0.00 67 1020.2
20200328084822 35 331 0.0 7.0 0.00 0.00 0.00 66 1020.2
20200328084503 34 331 3.0 0.0 0.00 0.00 0.00 67 1018.5
20200328084323 35 331 2.0 7.0 0.00 0.00 0.00 67 1020.2
20200328083815 34 339 3.0 6.0 0.00 0.00 0.00 68 1020.2
20200328083333 35 340 2.0 3.0 0.00 0.00 0.00 67 1020.3
20200328083109 34 340 0.0 0.0 0.00 0.00 0.00 67 1018.5
20200328082820 34 340 0.0 2.0 0.00 0.00 0.00 67 1020.3
20200328082333 34 340 0.0 7.0 0.00 0.00 0.00 68 1020.3
20200328081822 34 340 3.0 7.0 0.00 0.00 0.00 69 1020.4
20200328081519 33 340 1.0 0.0 0.00 0.00 0.00 70 1018.6
20200328081322 34 340 1.0 4.0 0.00 0.00 0.00 70 1020.3
20200328080833 34 340 1.0 4.0 0.00 0.00 0.00 69 1020.4
20200328080354 34 338 1.0 3.0 0.00 0.00 0.00 67 1020.3
20200328080124 34 338 0.0 0.0 0.00 0.00 0.00 67 1018.3
20200328075822 34 338 0.0 0.0 0.00 0.00 0.00 66 1020.0
20200328075320 34 338 0.0 0.0 0.00 0.00 0.00 66 1020.0
20200328074815 34 338 0.0 3.0 0.00 0.00 0.00 66 1020.0
20200328074739 34 338 0.0 0.0 0.00 0.00 0.00 66 1018.3
20200328074314 35 338 0.0 3.0 0.00 0.00 0.00 66 1019.9
20200328073827 35 338 0.0 3.0 0.00 0.00 0.00 66 1020.0
20200328073326 35 338 0.0 4.0 0.00 0.00 0.00 65 1019.8
20200328073117 34 338 2.0 0.0 0.00 0.00 0.00 66 1018.1
20200328072840 35 338 3.0 4.0 0.00 0.00 0.00 66 1019.7
20200328072311 35 338 2.0 3.0 0.00 0.00 0.00 66 1019.7
20200328071824 34 338 1.0 3.0 0.00 0.00 0.00 67 1019.7
20200328071503 34 338 0.0 0.0 0.00 0.00 0.00 67 1018.0
20200328071324 34 338 0.0 3.0 0.00 0.00 0.00 68 1020.6
20200328070815 34 338 0.0 3.0 0.00 0.00 0.00 67 1020.6
20200328070357 34 338 1.0 4.0 0.00 0.00 0.00 68 1020.5
20200328065822 34 338 3.0 4.0 0.00 0.00 0.00 68 1020.3
20200328065319 34 338 3.0 4.0 0.00 0.00 0.00 68 1020.4
20200328064820 34 338 1.0 3.0 0.00 0.00 0.00 68 1020.4
20200328064315 34 338 1.0 3.0 0.00 0.00 0.00 68 1020.4
20200328063818 34 338 1.0 3.0 0.00 0.00 0.00 68 1020.3
20200328063354 34 338 1.0 0.0 0.00 0.00 0.00 68 1017.7
20200328063318 34 338 2.0 3.0 0.00 0.00 0.00 68 1020.4
20200328062820 34 338 1.0 3.0 0.00 0.00 0.00 68 1020.4
20200328062317 35 338 1.0 2.0 0.00 0.00 0.00 67 1020.4
20200328061817 35 338 0.0 1.0 0.00 0.00 0.00 67 1020.4
20200328061645 34 338 0.0 0.0 0.00 0.00 0.00 67 1017.7
20200328061334 35 338 0.0 0.0 0.00 0.00 0.00 66 1020.4
20200328060811 35 338 0.0 1.0 0.00 0.00 0.00 66 1020.3
20200328060354 35 338 0.0 2.0 0.00 0.00 0.00 65 1020.2
20200328060127 35 338 0.0 0.0 0.00 0.00 0.00 65 1017.5
20200328055824 36 338 0.0 2.0 0.00 0.00 0.00 64 1020.0
20200328055338 36 338 0.0 1.0 0.00 0.00 0.00 64 1020.1
20200328054831 37 339 1.0 3.0 0.00 0.00 0.00 63 1020.1
20200328054737 37 338 0.0 0.0 0.00 0.00 0.00 62 1017.4
20200328054323 38 338 0.0 3.0 0.00 0.00 0.00 62 1020.0
20200328053822 38 338 0.0 3.0 0.00 0.00 0.00 61 1020.1
20200328053330 39 339 0.0 3.0 0.00 0.00 0.00 60 1020.1
20200328053002 38 338 0.0 0.0 0.00 0.00 0.00 59 1017.4
20200328052828 39 338 1.0 2.0 0.00 0.00 0.00 59 1020.0
20200328052324 39 338 0.0 0.0 0.00 0.00 0.00 58 1019.9
20200328051824 39 338 0.0 1.0 0.00 0.00 0.00 58 1019.8
20200328051657 39 338 0.0 0.0 0.00 0.00 0.00 58 1017.1
20200328051325 39 338 0.0 1.0 0.00 0.00 0.00 57 1019.7
20200328050821 40 338 0.0 1.0 0.00 0.00 0.00 57 1019.6
20200328050347 40 338 0.0 2.0 0.00 0.00 0.00 57 1019.6
20200328050007 39 338 0.0 0.0 0.00 0.00 0.00 57 1017.0
20200328045834 40 338 0.0 2.0 0.00 0.00 0.00 57 1019.5
20200328045314 40 338 0.0 1.0 0.00 0.00 0.00 57 1019.4
20200328044833 40 338 0.0 2.0 0.00 0.00 0.00 57 1019.4
20200328044702 39 338 0.0 0.0 0.00 0.00 0.00 57 1016.8
20200328044332 40 338 0.0 2.0 0.00 0.00 0.00 57 1019.5
20200328043832 40 338 1.0 2.0 0.00 0.00 0.00 56 1019.5
20200328043332 40 338 1.0 2.0 0.00 0.00 0.00 56 1019.5
20200328043036 40 338 0.0 0.0 0.00 0.00 0.00 56 1016.8
20200328042825 40 338 1.0 2.0 0.00 0.00 0.00 55 1019.3
20200328042320 41 338 0.0 3.0 0.00 0.00 0.00 55 1019.2
20200328041823 41 338 0.0 3.0 0.00 0.00 0.00 55 1019.1
20200328041313 41 338 0.0 2.0 0.00 0.00 0.00 55 1019.0
20200328040826 41 338 1.0 3.0 0.00 0.00 0.00 55 1019.0
20200328040352 40 338 0.0 0.0 0.00 0.00 0.00 55 1016.2
20200328040348 41 338 1.0 3.0 0.00 0.00 0.00 55 1019.7
20200328035818 41 338 1.0 2.0 0.00 0.00 0.00 55 1019.7
20200328035328 41 338 0.0 2.0 0.00 0.00 0.00 54 1019.6
20200328034827 41 339 0.0 2.0 0.00 0.00 0.00 53 1019.5
20200328034318 42 338 0.0 1.0 0.00 0.00 0.00 53 1019.4
20200328033823 42 338 0.0 1.0 0.00 0.00 0.00 53 1019.3
20200328033318 42 338 0.0 0.0 0.00 0.00 0.00 52 1019.2
20200328033007 42 338 0.0 0.0 0.00 0.00 0.00 52 1015.5
20200328032827 42 338 0.0 1.0 0.00 0.00 0.00 51 1019.0
20200328032324 43 338 0.0 3.0 0.00 0.01 0.00 51 1019.0
20200328031824 43 338 1.0 4.0 0.00 0.01 0.00 51 1018.9
20200328031612 43 338 2.0 0.0 0.00 0.00 0.00 50 1015.4
20200328031318 43 338 2.0 5.0 0.00 0.01 0.00 50 1018.8
20200328030822 43 338 3.0 5.0 0.00 0.01 0.00 50 1018.7
20200328030351 44 338 2.0 5.0 0.00 0.01 0.00 49 1018.6
20200328030056 43 338 3.0 0.0 0.00 0.00 0.00 49 1015.0
20200328025837 44 338 1.0 7.0 0.00 0.01 0.00 48 1018.5
20200328025331 44 339 4.0 8.0 0.00 0.01 0.00 48 1018.5
20200328024824 45 346 4.0 9.0 0.00 0.01 0.00 47 1018.3
20200328024323 45 346 4.0 10.0 0.00 0.01 0.00 47 1018.2
20200328023820 45 347 7.0 10.0 0.00 0.01 0.00 46 1018.1
20200328023316 46 351 4.0 8.0 0.00 0.01 0.00 44 1018.0
20200328023105 46 355 5.0 0.0 0.00 0.00 0.00 43 1014.4
20200328022824 46 5 6.0 8.0 0.00 0.01 0.00 43 1017.9
20200328022324 47 355 4.0 8.0 0.00 0.01 0.00 35 1017.9
20200328021814 47 308 5.0 10.0 0.00 0.01 0.00 32 1017.6
20200328021508 47 310 6.0 0.0 0.00 0.00 0.00 32 1014.0
20200328021316 47 318 6.0 10.0 0.00 0.01 0.00 32 1017.5
20200328020814 47 311 6.0 9.0 0.00 0.01 0.00 32 1017.3
20200328020354 47 325 5.0 11.0 0.00 0.01 0.00 32 1017.2
20200328020002 47 313 6.0 0.0 0.00 0.00 0.00 32 1013.6
20200328015823 47 313 5.0 11.0 0.00 0.01 0.00 32 1017.2
20200328015318 48 304 4.0 12.0 0.00 0.01 0.00 32 1017.1
20200328014818 48 298 6.0 12.0 0.00 0.01 0.00 32 1017.0
20200328014624 47 309 6.0 0.0 0.00 0.00 0.00 31 1013.3
20200328014334 48 302 5.0 11.0 0.00 0.01 0.00 32 1017.0
20200328013811 48 300 5.0 11.0 0.00 0.01 0.00 31 1016.9
20200328013324 49 291 8.0 11.0 0.00 0.01 0.00 31 1016.7
20200328013131 48 297 6.0 0.0 0.00 0.00 0.00 31 1013.1
20200328012827 49 300 6.0 14.0 0.00 0.01 0.00 31 1016.6
20200328012322 49 285 8.0 14.0 0.00 0.01 0.00 30 1016.5
20200328011824 49 344 8.0 17.0 0.00 0.01 0.00 31 1016.4
20200328011539 49 294 8.0 0.0 0.00 0.00 0.00 31 1012.7
20200328011325 50 309 7.0 17.0 0.00 0.01 0.00 30 1016.3
20200328010824 50 292 7.0 12.0 0.00 0.01 0.00 29 1016.1
20200328010347 51 284 4.0 15.0 0.00 0.01 0.00 30 1016.2
20200328010107 50 296 7.0 0.0 0.00 0.00 0.00 29 1012.5
20200328005818 51 298 6.0 15.0 0.00 0.01 0.00 30 1016.1
20200328005315 51 341 7.0 14.0 0.00 0.01 0.00 30 1015.9
20200328004814 51 308 10.0 17.0 0.00 0.01 0.00 30 1015.7
20200328004607 50 313 10.0 0.0 0.00 0.00 0.00 30 1012.1
20200328004313 51 319 14.0 17.0 0.00 0.01 0.00 30 1015.7
20200328003815 51 298 8.0 17.0 0.00 0.01 0.00 31 1015.5
20200328003330 51 5 9.0 17.0 0.00 0.01 0.00 31 1015.5
20200328003027 51 316 12.0 0.0 0.00 0.00 0.00 32 1011.8
20200328002829 51 306 10.0 19.0 0.00 0.01 0.00 31 1015.4
20200328002321 52 306 12.0 20.0 0.00 0.01 0.00 32 1015.2
20200328001820 52 306 13.0 22.0 0.00 0.01 0.00 32 1015.0
20200328001611 51 327 10.0 0.0 0.00 0.00 0.00 31 1011.3
20200328001318 52 308 10.0 22.0 0.00 0.01 0.00 32 1015.0
20200328000818 53 300 8.0 21.0 0.00 0.01 0.00 32 1014.9
20200328000358 53 317 10.0 21.0 0.00 0.01 0.00 32 1014.9
20200327235829 53 271 9.0 21.0 0.00 0.01 0.00 31 1014.8
20200327235319 53 327 10.0 21.0 0.00 0.01 0.00 31 1014.6
20200327234818 53 319 11.0 19.0 0.00 0.01 0.00 31 1014.5
20200327234604 53 333 9.0 0.0 0.00 0.00 0.00 31 1010.8
20200327234329 54 312 10.0 19.0 0.00 0.01 0.00 31 1014.4
20200327233828 54 314 9.0 19.0 0.00 0.01 0.00 31 1014.4
20200327233326 55 290 7.0 13.0 0.00 0.01 0.00 30 1014.3
20200327233010 54 284 8.0 0.0 0.00 0.00 0.00 30 1010.7
20200327232826 54 248 5.0 16.0 0.00 0.01 0.00 30 1014.2
20200327232319 54 300 8.0 19.0 0.00 0.01 0.00 31 1014.1
20200327231821 54 280 7.0 17.0 0.00 0.01 0.00 33 1013.8
20200327231731 53 319 5.0 0.0 0.00 0.00 0.00 33 1010.0
20200327231318 53 302 4.0 14.0 0.00 0.01 0.00 32 1014.7
20200327230818 54 293 8.0 15.0 0.00 0.01 0.00 31 1014.7
20200327230352 55 295 9.0 18.0 0.00 0.01 0.00 30 1014.5
20200327230209 55 240 9.0 0.0 0.00 0.00 0.00 30 1010.0
20200327225825 56 291 10.0 20.0 0.00 0.01 0.00 30 1014.4
20200327225324 56 302 9.0 20.0 0.00 0.01 0.00 30 1014.4
20200327224825 55 257 7.0 17.0 0.00 0.01 0.00 31 1014.2
20200327224558 55 304 7.0 0.0 0.00 0.00 0.00 31 1009.8
20200327224323 56 307 7.0 15.0 0.00 0.01 0.00 29 1014.3
20200327223823 58 288 7.0 20.0 0.00 0.01 0.00 28 1014.3
20200327223323 58 207 6.0 20.0 0.00 0.01 0.00 27 1014.2
20200327223152 57 240 6.0 0.0 0.00 0.00 0.00 30 1009.6
20200327222824 58 254 6.0 14.0 0.00 0.01 0.00 29 1014.1
20200327222322 58 228 9.0 16.0 0.00 0.01 0.00 29 1014.1
20200327221821 58 293 7.0 18.0 0.00 0.01 0.00 31 1013.9
20200327221730 58 261 5.0 0.0 0.00 0.00 0.00 31 1009.1
20200327221316 58 217 4.0 13.0 0.00 0.01 0.00 31 1013.8
20200327220814 57 252 6.0 13.0 0.00 0.01 0.00 32 1014.0
20200327220357 57 254 5.0 14.0 0.00 0.01 0.00 33 1013.8
20200327220035 56 222 7.0 0.0 0.00 0.00 0.00 32 1009.3
20200327215823 57 236 7.0 16.0 0.00 0.01 0.00 33 1013.8
20200327215323 56 236 9.0 16.0 0.00 0.01 0.00 34 1013.7
20200327214817 56 285 7.0 15.0 0.00 0.01 0.00 35 1013.6
20200327214547 56 263 7.0 0.0 0.00 0.00 0.00 35 1009.0
20200327214317 56 298 9.0 15.0 0.00 0.01 0.00 34 1013.5
20200327213829 57 271 6.0 13.0 0.00 0.01 0.00 34 1013.6
20200327213328 57 278 7.0 19.0 0.00 0.01 0.00 33 1013.6
20200327213052 56 231 11.0 0.0 0.00 0.00 0.00 33 1008.9
20200327212823 57 246 7.0 23.0 0.00 0.01 0.00 33 1013.5
20200327212323 57 234 15.0 23.0 0.00 0.01 0.00 34 1013.4
20200327211821 58 243 11.0 19.0 0.00 0.01 0.00 34 1013.5
20200327211535 57 217 9.0 0.0 0.00 0.00 0.00 35 1008.9
20200327211325 58 263 11.0 18.0 0.00 0.01 0.00 34 1013.4
20200327210824 58 250 9.0 22.0 0.00 0.01 0.00 36 1013.4
20200327210348 58 215 8.0 22.0 0.00 0.01 0.00 34 1013.3
20200327210310 57 265 12.0 0.0 0.00 0.00 0.00 33 1008.8
20200327205816 57 248 7.0 20.0 0.00 0.01 0.00 37 1013.3
20200327205316 58 229 15.0 24.0 0.00 0.01 0.00 37 1013.2
20200327204823 57 210 13.0 24.0 0.00 0.01 0.00 36 1013.3
20200327204540 57 242 12.0 0.0 0.00 0.00 0.00 36 1008.6
20200327204325 57 236 11.0 21.0 0.00 0.01 0.00 36 1013.2
20200327203820 58 223 11.0 20.0 0.00 0.01 0.00 35 1013.1
20200327203322 58 245 12.0 21.0 0.00 0.01 0.00 35 1013.1
20200327203051 57 259 14.0 0.0 0.00 0.00 0.00 35 1008.5
20200327202817 58 252 15.0 22.0 0.00 0.01 0.00 35 1013.0
20200327202318 58 242 12.0 22.0 0.00 0.01 0.00 35 1012.9
20200327201822 59 257 10.0 19.0 0.00 0.01 0.00 33 1012.9
20200327201657 59 186 10.0 0.0 0.00 0.00 0.00 33 1008.4
20200327201321 59 178 9.0 17.0 0.00 0.01 0.00 33 1013.0
20200327200823 59 239 11.0 16.0 0.00 0.01 0.00 32 1012.8
20200327200354 58 219 4.0 19.0 0.00 0.01 0.00 32 1012.8
20200327200050 58 240 12.0 0.0 0.00 0.00 0.00 31 1008.4
20200327195821 58 229 11.0 19.0 0.00 0.01 0.00 30 1013.0
20200327195322 58 257 13.0 25.0 0.00 0.01 0.00 31 1012.8
20200327194823 57 229 12.0 25.0 0.00 0.01 0.00 29 1012.8
20200327194554 57 223 13.0 0.0 0.00 0.00 0.00 29 1008.4
20200327194322 58 232 15.0 20.0 0.00 0.01 0.00 29 1012.9
20200327193825 58 256 12.0 23.0 0.00 0.01 0.00 29 1013.0
20200327193320 58 236 11.0 23.0 0.00 0.01 0.00 28 1012.9
20200327193033 57 248 13.0 0.0 0.00 0.00 0.00 29 1008.4
20200327192820 58 209 11.0 24.0 0.00 0.01 0.00 29 1012.8
20200327192320 58 235 12.0 24.0 0.00 0.01 0.00 31 1013.2
20200327191818 58 198 10.0 21.0 0.00 0.01 0.00 30 1012.9
20200327191543 57 229 12.0 0.0 0.00 0.00 0.00 31 1008.5
20200327191331 58 234 13.0 23.0 0.00 0.01 0.00 30 1013.0
20200327190830 58 233 8.0 23.0 0.00 0.01 0.00 31 1012.9
20200327190354 58 224 14.0 22.0 0.00 0.01 0.00 32 1012.8
20200327190203 57 206 13.0 0.0 0.00 0.00 0.00 31 1008.2
20200327185830 58 246 12.0 24.0 0.00 0.01 0.00 32 1012.8
20200327185329 57 212 15.0 24.0 0.00 0.01 0.00 29 1012.9
20200327184828 57 220 13.0 22.0 0.00 0.01 0.00 30 1013.0
20200327184710 57 190 14.0 0.0 0.00 0.00 0.00 31 1008.4
20200327184328 57 238 12.0 23.0 0.00 0.01 0.00 31 1013.0
20200327183823 57 210 13.0 23.0 0.00 0.01 0.00 32 1012.9
20200327183322 57 226 12.0 24.0 0.00 0.01 0.00 33 1012.9
20200327183031 56 219 13.0 0.0 0.00 0.00 0.00 33 1008.4
20200327182816 57 268 13.0 22.0 0.00 0.01 0.00 33 1012.9
20200327182316 56 253 12.0 23.0 0.00 0.01 0.00 35 1012.8
20200327181816 56 258 13.0 26.0 0.00 0.01 0.00 35 1012.9
20200327181530 55 233 14.0 0.0 0.00 0.00 0.00 36 1008.3
20200327181317 56 247 13.0 26.0 0.00 0.01 0.00 36 1012.9
20200327180819 56 267 18.0 24.0 0.00 0.01 0.00 36 1012.9
20200327180344 57 254 13.0 23.0 0.00 0.01 0.00 37 1012.8
20200327180119 56 227 12.0 0.0 0.00 0.00 0.00 38 1008.3
20200327175831 56 248 13.0 24.0 0.00 0.01 0.00 37 1012.8
20200327175328 56 225 9.0 24.0 0.00 0.01 0.00 38 1012.8
20200327174839 56 253 12.0 21.0 0.00 0.01 0.00 37 1012.7
20200327174549 56 260 10.0 0.0 0.00 0.00 0.00 37 1008.2
20200327174329 57 263 9.0 23.0 0.00 0.01 0.00 37 1012.7
20200327173827 56 225 10.0 23.0 0.00 0.01 0.00 37 1012.7
20200327173323 56 209 13.0 23.0 0.00 0.01 0.00 38 1013.6
20200327173204 56 237 11.0 0.0 0.00 0.00 0.00 38 1008.0
20200327172823 56 218 12.0 19.0 0.00 0.01 0.00 38 1013.6
20200327172320 56 244 9.0 18.0 0.00 0.01 0.00 38 1013.6
20200327171819 56 246 12.0 23.0 0.00 0.01 0.00 38 1013.6
20200327171557 55 235 10.0 0.0 0.00 0.00 0.00 38 1008.2
20200327171317 56 254 13.0 23.0 0.00 0.01 0.00 37 1013.6
20200327170832 55 242 8.0 21.0 0.00 0.01 0.00 38 1013.5
20200327170355 55 227 10.0 21.0 0.00 0.01 0.00 38 1013.5
20200327170047 55 187 10.0 0.0 0.00 0.00 0.00 39 1008.1
20200327165823 55 227 11.0 20.0 0.00 0.01 0.00 38 1013.4
20200327165323 55 250 6.0 15.0 0.00 0.01 0.00 39 1013.4
20200327164823 55 219 11.0 18.0 0.00 0.01 0.00 39 1013.3
20200327164508 54 232 11.0 0.0 0.00 0.00 0.00 40 1007.9
20200327164322 55 223 10.0 19.0 0.00 0.01 0.00 38 1013.2
20200327163840 54 207 9.0 24.0 0.00 0.01 0.00 40 1013.0
20200327163331 54 217 13.0 24.0 0.00 0.01 0.00 39 1013.1
20200327163116 54 197 12.0 0.0 0.00 0.00 0.00 39 1007.7
20200327162823 54 200 13.0 19.0 0.00 0.01 0.00 42 1013.1
20200327162324 54 203 12.0 19.0 0.00 0.01 0.00 42 1013.0
20200327161839 54 209 10.0 21.0 0.00 0.01 0.00 41 1013.0
20200327161622 53 250 12.0 0.0 0.00 0.00 0.00 39 1007.6
20200327161311 53 207 12.0 21.0 0.00 0.01 0.00 39 1012.8
20200327160821 54 254 14.0 17.0 0.00 0.01 0.00 37 1012.8
20200327160401 53 235 10.0 17.0 0.00 0.01 0.00 38 1012.7
20200327160001 53 209 10.0 0.0 0.00 0.00 0.00 43 1007.3
20200327155828 53 239 9.0 17.0 0.00 0.01 0.00 43 1012.8
20200327155324 53 222 11.0 17.0 0.00 0.01 0.00 43 1012.9
20200327154824 53 224 7.0 15.0 0.00 0.01 0.00 43 1012.8
20200327154617 52 235 8.0 0.0 0.00 0.00 0.00 43 1007.5
20200327154323 53 231 6.0 17.0 0.00 0.01 0.00 44 1012.9
20200327153824 52 244 9.0 19.0 0.00 0.01 0.00 45 1012.8
20200327153324 52 232 12.0 19.0 0.00 0.01 0.00 44 1012.7
20200327153024 51 229 9.0 0.0 0.00 0.00 0.00 46 1007.3
20200327152820 52 192 10.0 15.0 0.00 0.01 0.00 46 1012.7
20200327152320 52 221 8.0 14.0 0.00 0.01 0.00 44 1012.5
20200327151814 51 219 7.0 12.0 0.00 0.01 0.00 46 1012.5
20200327151711 51 235 6.0 0.0 0.00 0.00 0.00 46 1007.2
20200327151312 51 223 9.0 12.0 0.00 0.01 0.00 46 1012.6
20200327150811 50 244 4.0 11.0 0.00 0.01 0.00 50 1012.6
20200327150357 49 299 8.0 11.0 0.00 0.01 0.00 56 1012.6
20200327150222 49 272 3.0 0.0 0.00 0.00 0.00 58 1007.0
20200327145823 49 265 5.0 9.0 0.00 0.01 0.00 58 1012.5
20200327145318 48 293 0.0 6.0 0.00 0.01 0.00 60 1012.4
20200327144817 48 294 2.0 8.0 0.00 0.01 0.00 61 1012.4
20200327144538 47 292 2.0 0.0 0.00 0.00 0.00 62 1007.0
20200327144317 47 192 3.0 10.0 0.00 0.01 0.00 63 1012.3
20200327143831 46 178 0.0 8.0 0.00 0.01 0.00 67 1012.5
20200327143329 45 106 4.0 8.0 0.00 0.01 0.00 71 1012.3
20200327142828 45 13 1.0 6.0 0.00 0.01 0.00 73 1012.1
20200327142330 44 27 2.0 7.0 0.00 0.01 0.00 73 1012.2
20200327141824 44 27 3.0 7.0 0.00 0.01 0.00 73 1012.2
20200327141609 43 15 3.0 0.0 0.00 0.00 0.00 73 1006.9
20200327141322 44 345 1.0 9.0 0.00 0.01 0.00 72 1012.3
20200327140818 44 329 5.0 11.0 0.00 0.01 0.00 72 1012.1
20200327140359 44 44 1.0 11.0 0.00 0.01 0.00 71 1012.2
20200327140201 43 43 4.0 0.0 0.00 0.00 0.00 71 1006.6
20200327135830 44 64 5.0 10.0 0.00 0.01 0.00 71 1012.0
20200327135324 44 66 6.0 10.0 0.00 0.01 0.00 71 1012.0
20200327134824 44 5 2.0 8.0 0.00 0.01 0.00 70 1012.1
20200327134531 43 5 3.0 0.0 0.00 0.00 0.00 69 1006.5
20200327134323 44 46 3.0 8.0 0.00 0.01 0.00 68 1011.9
20200327133824 45 15 3.0 6.0 0.00 0.01 0.00 67 1012.0
20200327133324 45 56 2.0 5.0 0.00 0.01 0.00 65 1011.8
20200327133143 45 58 2.0 0.0 0.00 0.00 0.00 65 1006.4
20200327132821 46 271 2.0 5.0 0.00 0.01 0.00 64 1012.0
20200327132332 46 269 1.0 3.0 0.00 0.01 0.00 63 1011.9
20200327131824 47 269 0.0 4.0 0.00 0.01 0.00 62 1011.7
20200327131528 47 269 1.0 0.0 0.00 0.00 0.00 62 1006.2
20200327131323 47 269 1.0 4.0 0.00 0.01 0.00 61 1011.5
20200327130819 48 256 0.0 5.0 0.00 0.01 0.00 60 1011.4
20200327130343 48 256 3.0 5.0 0.00 0.01 0.00 60 1011.3
20200327130010 48 238 2.0 0.0 0.00 0.00 0.00 60 1005.9
20200327125823 49 238 1.0 7.0 0.00 0.01 0.00 60 1011.4
20200327125324 49 234 1.0 10.0 0.00 0.01 0.00 59 1011.3
20200327124819 49 227 2.0 10.0 0.00 0.01 0.00 60 1011.1
20200327124647 48 226 4.0 0.0 0.00 0.00 0.00 60 1005.6
20200327124321 49 220 2.0 9.0 0.00 0.01 0.00 60 1011.1
20200327123815 49 209 4.0 9.0 0.00 0.01 0.00 61 1011.9
20200327123316 49 198 6.0 13.0 0.00 0.01 0.00 62 1011.7
20200327123049 49 192 8.0 0.0 0.00 0.00 0.00 62 1005.3
20200327122831 49 224 8.0 13.0 0.00 0.01 0.00 62 1011.5
20200327122329 50 190 8.0 15.0 0.00 0.01 0.00 61 1011.5
20200327121822 50 214 7.0 16.0 0.00 0.01 0.00 61 1011.2
20200327121625 50 226 9.0 0.0 0.00 0.00 0.00 63 1004.9
20200327121321 50 184 9.0 17.0 0.00 0.01 0.00 60 1011.2
20200327120816 51 230 10.0 17.0 0.00 0.01 0.00 57 1011.0
20200327120349 51 189 10.0 17.0 0.00 0.01 0.00 55 1010.8
20200327120143 51 204 10.0 0.0 0.00 0.00 0.00 54 1004.6